Time;durP1;ratioP1;P1;durP2;ratioP2;P2;SDS_P1;SDS_P2;PMS_P1;PMS_P2;Temp;Humidity;BMP_temperature;BMP_pressure;BME280_temperature;BME280_humidity;BME280_pressure;Samples;Min_cycle;Max_cycle;Signal;HPM_P1;HPM_P2
2021/11/05 00:01:49;;;;;;;1.08;0.95;;;9.30;99.90;;;;;;5032247;28;20171;-77
2021/11/05 00:04:15;;;;;;;6.18;1.60;;;9.20;99.90;;;;;;5032008;28;20172;-78
2021/11/05 00:06:40;;;;;;;2.17;1.20;;;9.30;99.90;;;;;;5032336;28;20212;-77
2021/11/05 00:09:06;;;;;;;1.33;1.23;;;9.10;99.90;;;;;;5032318;28;20223;-77
2021/11/05 00:11:33;;;;;;;2.03;1.50;;;9.20;99.90;;;;;;5031149;28;20215;-79
2021/11/05 00:13:58;;;;;;;3.60;1.20;;;9.30;99.90;;;;;;5032338;28;20166;-77
2021/11/05 00:16:24;;;;;;;2.22;1.60;;;9.20;99.90;;;;;;5032291;28;20167;-77
2021/11/05 00:18:50;;;;;;;3.63;1.70;;;9.20;99.90;;;;;;5032156;28;20175;-77
2021/11/05 00:21:15;;;;;;;2.83;1.52;;;9.20;99.90;;;;;;5032198;28;20171;-77
2021/11/05 00:23:41;;;;;;;2.97;1.52;;;9.30;99.90;;;;;;5032471;28;20180;-77
2021/11/05 00:26:07;;;;;;;2.55;1.23;;;9.20;99.90;;;;;;5031943;28;20168;-77
2021/11/05 00:28:32;;;;;;;5.72;1.33;;;9.20;99.90;;;;;;5030899;28;20163;-77
2021/11/05 00:30:58;;;;;;;3.95;1.35;;;9.30;99.90;;;;;;5032143;28;20277;-77
2021/11/05 00:33:24;;;;;;;1.98;1.13;;;9.20;99.90;;;;;;5032064;28;20187;-77
2021/11/05 00:35:50;;;;;;;4.32;1.27;;;9.10;99.90;;;;;;5030892;28;20171;-77
2021/11/05 00:38:15;;;;;;;1.90;1.10;;;9.10;99.90;;;;;;5030312;28;20179;-77
2021/11/05 00:40:41;;;;;;;2.10;1.42;;;9.10;99.90;;;;;;5032065;28;20199;-79
2021/11/05 00:43:07;;;;;;;1.65;1.10;;;9.10;99.90;;;;;;5031977;28;20160;-77
2021/11/05 00:45:33;;;;;;;1.52;1.17;;;9.20;99.90;;;;;;5030626;28;20214;-77
2021/11/05 00:47:59;;;;;;;2.60;1.25;;;9.20;99.90;;;;;;5032099;28;20160;-77
2021/11/05 00:50:25;;;;;;;2.60;1.85;;;9.20;99.90;;;;;;5030487;28;20262;-77
2021/11/05 00:52:50;;;;;;;3.65;1.55;;;9.20;99.90;;;;;;5031829;28;20159;-78
2021/11/05 00:55:16;;;;;;;7.20;1.80;;;9.30;99.90;;;;;;5032162;28;20230;-78
2021/11/05 00:57:42;;;;;;;3.15;1.63;;;9.40;99.90;;;;;;5032139;28;20182;-80
2021/11/05 01:00:11;;;;;;;6.40;1.83;;;9.30;99.90;;;;;;5031847;28;20273;-80
2021/11/05 01:02:38;;;;;;;2.08;1.85;;;9.30;99.90;;;;;;5031945;28;20167;-80
2021/11/05 01:05:04;;;;;;;1.80;1.67;;;9.30;99.90;;;;;;5031587;28;20167;-77
2021/11/05 01:07:30;;;;;;;1.77;1.55;;;9.50;99.90;;;;;;5031738;28;20160;-77
2021/11/05 01:09:55;;;;;;;7.80;1.80;;;9.50;99.90;;;;;;5031572;28;20203;-78
2021/11/05 01:12:21;;;;;;;8.48;2.15;;;9.40;99.90;;;;;;5031717;28;20634;-77
2021/11/05 01:14:48;;;;;;;1.98;1.63;;;9.30;99.90;;;;;;5031621;28;20164;-77
2021/11/05 01:17:14;;;;;;;4.55;2.30;;;9.10;99.90;;;;;;5031795;28;20160;-78
2021/11/05 01:19:40;;;;;;;3.33;1.60;;;9.20;99.90;;;;;;5031971;28;20195;-77
2021/11/05 01:22:06;;;;;;;1.92;1.60;;;9.20;99.90;;;;;;5035205;28;20188;-78
2021/11/05 01:24:32;;;;;;;7.90;2.28;;;9.10;99.90;;;;;;5034869;28;20231;-78
2021/11/05 01:26:58;;;;;;;7.70;2.53;;;9.30;99.90;;;;;;5035095;28;20183;-77
2021/11/05 01:29:24;;;;;;;3.60;1.98;;;9.20;99.90;;;;;;5034848;28;20219;-78
2021/11/05 01:31:52;;;;;;;3.92;1.73;;;9.20;99.90;;;;;;5035210;28;20168;-78
2021/11/05 01:34:18;;;;;;;3.40;1.60;;;9.30;99.90;;;;;;5034684;28;20183;-77
2021/11/05 01:36:44;;;;;;;3.10;2.00;;;9.30;99.90;;;;;;5034776;28;20194;-78
2021/11/05 01:39:10;;;;;;;2.08;1.45;;;9.40;99.90;;;;;;5034741;28;20580;-77
2021/11/05 01:41:40;;;;;;;2.78;1.73;;;9.50;99.90;;;;;;5034526;28;20560;-77
2021/11/05 01:44:07;;;;;;;6.00;2.15;;;9.30;99.90;;;;;;5034418;28;20175;-77
2021/11/05 01:46:33;;;;;;;3.88;1.88;;;9.30;99.90;;;;;;5034631;28;20226;-77
2021/11/05 01:48:59;;;;;;;6.07;2.40;;;9.30;99.90;;;;;;5034531;28;20234;-78
2021/11/05 01:51:25;;;;;;;3.08;1.90;;;9.30;99.90;;;;;;5034505;28;20207;-77
2021/11/05 01:53:51;;;;;;;4.78;1.70;;;9.30;99.90;;;;;;5034557;28;20192;-77
2021/11/05 01:56:17;;;;;;;2.88;1.60;;;9.40;99.90;;;;;;5034595;28;20183;-78
2021/11/05 01:58:43;;;;;;;6.05;1.45;;;9.40;99.90;;;;;;5034565;28;20174;-78
2021/11/05 02:01:09;;;;;;;4.63;1.85;;;9.40;99.90;;;;;;5034849;28;20172;-78
2021/11/05 02:03:35;;;;;;;5.28;2.40;;;9.50;99.90;;;;;;5034537;28;20213;-77
2021/11/05 02:06:01;;;;;;;8.73;2.13;;;9.40;99.90;;;;;;5034317;28;20568;-77
2021/11/05 02:08:28;;;;;;;2.95;1.70;;;9.30;99.90;;;;;;5034727;28;20160;-80
2021/11/05 02:10:55;;;;;;;2.80;2.00;;;9.40;99.90;;;;;;5034326;28;20227;-77
2021/11/05 02:13:25;;;;;;;6.47;1.42;;;9.40;99.90;;;;;;5034375;28;20171;-77
2021/11/05 02:15:53;;;;;;;5.85;1.40;;;9.50;99.90;;;;;;5033060;28;20640;-77
2021/11/05 02:18:19;;;;;;;1.85;1.23;;;9.50;99.90;;;;;;5034148;28;20174;-78
2021/11/05 02:20:47;;;;;;;3.33;1.50;;;9.40;99.90;;;;;;5034295;28;20184;-79
2021/11/05 02:23:13;;;;;;;7.32;2.28;;;9.30;99.90;;;;;;5033124;28;20258;-78
2021/11/05 02:25:38;;;;;;;9.70;2.00;;;9.30;99.90;;;;;;5034217;28;20628;-77
2021/11/05 02:28:05;;;;;;;3.28;1.75;;;9.40;99.90;;;;;;5034287;28;20246;-78
2021/11/05 02:30:31;;;;;;;4.07;1.88;;;9.30;99.90;;;;;;5033866;28;20208;-78
2021/11/05 02:32:56;;;;;;;5.10;1.48;;;9.40;99.90;;;;;;5031364;28;20704;-78
2021/11/05 02:35:22;;;;;;;5.97;1.60;;;9.40;99.90;;;;;;5033987;28;20176;-77
2021/11/05 02:37:48;;;;;;;5.25;2.00;;;9.40;99.90;;;;;;5034097;28;20573;-79
2021/11/05 02:40:14;;;;;;;3.75;1.90;;;9.50;99.90;;;;;;5034038;28;20195;-78
2021/11/05 02:42:41;;;;;;;3.67;1.58;;;9.60;99.90;;;;;;5034003;28;20648;-78
2021/11/05 02:45:08;;;;;;;2.60;1.40;;;9.40;99.90;;;;;;5033700;28;20230;-78
2021/11/05 02:47:34;;;;;;;4.10;1.70;;;9.20;99.90;;;;;;5033915;28;20167;-78
2021/11/05 02:50:09;;;;;;;3.95;1.50;;;9.30;99.90;;;;;;5033638;28;20207;-79
2021/11/05 02:52:35;;;;;;;8.70;1.40;;;9.20;99.90;;;;;;5033791;28;20167;-81
2021/11/05 02:55:01;;;;;;;4.55;1.75;;;9.10;99.90;;;;;;5033654;28;20650;-78
2021/11/05 02:57:27;;;;;;;9.80;2.03;;;9.20;99.90;;;;;;5033525;28;20156;-78
2021/11/05 02:59:52;;;;;;;5.75;2.10;;;9.20;99.90;;;;;;5033076;28;20556;-78
2021/11/05 03:02:24;;;;;;;5.35;2.25;;;9.30;99.90;;;;;;5033259;28;20647;-78
2021/11/05 03:04:51;;;;;;;9.48;1.90;;;9.40;99.90;;;;;;5033481;28;20172;-78
2021/11/05 03:07:16;;;;;;;9.52;2.35;;;9.50;99.90;;;;;;5033441;28;20171;-79
2021/11/05 03:09:42;;;;;;;2.22;1.67;;;9.50;99.90;;;;;;5033385;28;20658;-78
2021/11/05 03:12:09;;;;;;;6.97;2.42;;;9.50;99.90;;;;;;5032131;28;20176;-78
2021/11/05 03:14:35;;;;;;;9.90;2.63;;;9.60;99.90;;;;;;5032864;28;20163;-78
2021/11/05 03:17:02;;;;;;;3.17;1.80;;;9.50;99.90;;;;;;5033500;28;20168;-77
2021/11/05 03:19:28;;;;;;;7.45;2.75;;;9.70;99.90;;;;;;5031840;28;20262;-78
2021/11/05 03:21:54;;;;;;;5.05;2.47;;;9.60;99.90;;;;;;5033875;28;20632;-77
2021/11/05 03:24:19;;;;;;;2.90;2.00;;;9.60;99.90;;;;;;5033571;28;20167;-78
2021/11/05 03:26:45;;;;;;;5.68;2.50;;;9.50;99.90;;;;;;5032920;28;20229;-78
2021/11/05 03:29:11;;;;;;;8.52;2.92;;;9.60;99.90;;;;;;5033405;28;20172;-77
2021/11/05 03:31:37;;;;;;;13.00;3.67;;;9.60;99.90;;;;;;5033660;28;20207;-77
2021/11/05 03:34:03;;;;;;;7.68;2.85;;;9.50;99.90;;;;;;5032995;28;20616;-78
2021/11/05 03:36:29;;;;;;;14.18;3.67;;;9.50;99.90;;;;;;5032848;28;20172;-78
2021/11/05 03:38:55;;;;;;;11.00;3.35;;;9.60;99.90;;;;;;5033062;28;20628;-77
2021/11/05 03:41:21;;;;;;;15.85;4.28;;;9.60;99.90;;;;;;5033009;28;20218;-78
2021/11/05 03:43:47;;;;;;;12.70;4.10;;;9.40;99.90;;;;;;5032090;28;20250;-78
2021/11/05 03:46:13;;;;;;;12.50;3.78;;;9.30;99.90;;;;;;5032484;28;20251;-77
2021/11/05 03:48:39;;;;;;;8.52;4.03;;;9.30;99.90;;;;;;5033129;28;20180;-78
2021/11/05 03:51:06;;;;;;;11.18;4.03;;;9.30;99.90;;;;;;5032847;28;20630;-77
2021/11/05 03:53:32;;;;;;;18.77;4.95;;;9.30;99.90;;;;;;5033407;28;20164;-77
2021/11/05 03:55:58;;;;;;;11.43;3.42;;;9.50;99.90;;;;;;5032942;28;20246;-77
2021/11/05 03:58:24;;;;;;;11.57;4.18;;;9.40;99.90;;;;;;5032855;28;20251;-76
2021/11/05 04:00:49;;;;;;;12.10;4.20;;;9.30;99.90;;;;;;5032976;28;20695;-77
2021/11/05 04:03:15;;;;;;;12.90;3.88;;;9.30;99.90;;;;;;5034153;28;20195;-77
2021/11/05 04:05:41;;;;;;;10.93;4.15;;;9.30;99.90;;;;;;5034945;28;20199;-77
2021/11/05 04:08:06;;;;;;;7.40;3.58;;;9.30;99.90;;;;;;5034345;28;20182;-77
2021/11/05 04:10:32;;;;;;;14.85;4.60;;;9.30;99.90;;;;;;5033513;28;20199;-77
2021/11/05 04:13:00;;;;;;;11.35;4.65;;;9.30;99.90;;;;;;5033727;28;20171;-77
2021/11/05 04:15:25;;;;;;;11.70;4.70;;;9.40;99.90;;;;;;5033914;28;20230;-77
2021/11/05 04:17:51;;;;;;;12.80;4.82;;;9.60;99.90;;;;;;5034198;28;20168;-77
2021/11/05 04:20:17;;;;;;;9.27;4.55;;;9.40;99.90;;;;;;5031892;28;20672;-77
2021/11/05 04:22:42;;;;;;;16.42;4.32;;;9.50;99.90;;;;;;5033752;28;20511;-78
2021/11/05 04:25:09;;;;;;;17.88;5.55;;;9.50;99.90;;;;;;5033787;28;20636;-77
2021/11/05 04:27:35;;;;;;;11.38;5.72;;;9.60;99.90;;;;;;5033424;28;20163;-77
2021/11/05 04:30:00;;;;;;;13.52;5.00;;;9.70;99.90;;;;;;5032368;28;20203;-77
2021/11/05 04:32:26;;;;;;;12.05;6.00;;;9.70;99.90;;;;;;5031813;28;20247;-77
2021/11/05 04:34:52;;;;;;;19.02;5.18;;;9.70;99.90;;;;;;5032009;28;20527;-77
2021/11/05 04:37:17;;;;;;;19.88;5.53;;;9.80;99.90;;;;;;5032194;28;20164;-77
2021/11/05 04:39:43;;;;;;;10.40;5.63;;;9.90;99.90;;;;;;5032224;28;20219;-77
2021/11/05 04:42:09;;;;;;;9.98;5.20;;;9.70;99.90;;;;;;5030360;28;20183;-77
2021/11/05 04:44:34;;;;;;;10.10;4.82;;;9.70;99.90;;;;;;5030758;28;20172;-79
2021/11/05 04:47:00;;;;;;;11.73;4.78;;;9.80;99.90;;;;;;5032139;28;20186;-77
2021/11/05 04:49:26;;;;;;;9.90;5.05;;;9.90;99.90;;;;;;5031733;28;20279;-77
2021/11/05 04:51:52;;;;;;;10.68;5.00;;;10.00;99.90;;;;;;5030781;28;20203;-77
2021/11/05 04:54:17;;;;;;;10.82;4.13;;;10.20;99.90;;;;;;5031827;28;20175;-77
2021/11/05 04:56:45;;;;;;;12.27;4.38;;;9.80;99.90;;;;;;5035045;28;20536;-77
2021/11/05 04:59:11;;;;;;;8.85;3.70;;;9.70;99.90;;;;;;5035540;28;20510;-78
2021/11/05 05:01:37;;;;;;;9.85;4.28;;;9.80;99.90;;;;;;5035981;28;20218;-78
2021/11/05 05:04:04;;;;;;;9.73;4.78;;;9.80;99.90;;;;;;5036052;28;20175;-77
2021/11/05 05:06:29;;;;;;;10.10;4.13;;;9.80;99.90;;;;;;5035764;28;20175;-78
2021/11/05 05:08:55;;;;;;;6.38;3.38;;;9.60;99.90;;;;;;5035375;28;20168;-76
2021/11/05 05:11:21;;;;;;;8.15;4.40;;;9.80;99.90;;;;;;5035201;28;20211;-78
2021/11/05 05:13:46;;;;;;;6.97;3.95;;;9.60;99.90;;;;;;5034047;28;20250;-77
2021/11/05 05:16:12;;;;;;;7.78;4.15;;;9.70;99.90;;;;;;5035388;28;20178;-77
2021/11/05 05:18:37;;;;;;;9.43;3.92;;;9.80;99.90;;;;;;5035471;28;20156;-79
2021/11/05 05:21:03;;;;;;;5.13;3.17;;;9.80;99.90;;;;;;5035296;28;20175;-77
2021/11/05 05:23:29;;;;;;;10.50;4.68;;;9.80;99.90;;;;;;5035224;28;20167;-77
2021/11/05 05:25:55;;;;;;;5.47;3.30;;;9.60;99.90;;;;;;5035240;28;21062;-77
2021/11/05 05:28:20;;;;;;;5.70;3.28;;;9.50;99.90;;;;;;5034947;28;20540;-77
2021/11/05 05:30:46;;;;;;;4.85;3.22;;;9.40;99.90;;;;;;5034714;28;20230;-78
2021/11/05 05:33:11;;;;;;;11.77;3.35;;;9.50;99.90;;;;;;5035592;28;20247;-77
2021/11/05 05:35:37;;;;;;;5.43;3.60;;;9.50;99.90;;;;;;5035004;28;20163;-78
2021/11/05 05:38:03;;;;;;;4.90;3.08;;;9.50;99.90;;;;;;5034660;28;20176;-77
2021/11/05 05:40:28;;;;;;;6.95;3.17;;;9.50;99.90;;;;;;5034838;28;20245;-77
2021/11/05 05:42:54;;;;;;;10.90;3.72;;;9.40;99.90;;;;;;5034872;28;20160;-77
2021/11/05 05:45:21;;;;;;;6.38;3.10;;;9.50;99.90;;;;;;5033871;28;20628;-77
2021/11/05 05:47:47;;;;;;;3.72;2.33;;;9.30;99.90;;;;;;5034883;28;20214;-77
2021/11/05 05:50:15;;;;;;;5.78;2.78;;;9.30;99.90;;;;;;5034526;28;20199;-77
2021/11/05 05:52:42;;;;;;;8.27;2.55;;;9.20;99.90;;;;;;5034701;28;20261;-77
2021/11/05 05:55:10;;;;;;;13.82;2.88;;;9.40;99.90;;;;;;5035049;28;20167;-77
2021/11/05 05:57:36;;;;;;;7.78;3.00;;;9.40;99.90;;;;;;5033435;28;20176;-79
2021/11/05 06:00:05;;;;;;;10.32;3.17;;;9.40;99.90;;;;;;5035227;28;20192;-77
2021/11/05 06:02:31;;;;;;;4.07;2.13;;;9.30;99.90;;;;;;5034896;28;20618;-77
2021/11/05 06:04:57;;;;;;;5.07;2.65;;;9.20;99.90;;;;;;5032998;28;20259;-77
2021/11/05 06:07:22;;;;;;;12.63;3.58;;;8.80;99.90;;;;;;5034342;28;20191;-77
2021/11/05 06:09:48;;;;;;;7.40;2.60;;;8.80;99.90;;;;;;5034561;28;20180;-77
2021/11/05 06:12:14;;;;;;;7.43;3.13;;;8.70;99.90;;;;;;5034434;28;20222;-77
2021/11/05 06:14:39;;;;;;;7.32;2.75;;;8.70;99.90;;;;;;5034329;28;20168;-77
2021/11/05 06:17:05;;;;;;;7.30;3.67;;;8.80;99.90;;;;;;5034257;28;20172;-77
2021/11/05 06:19:31;;;;;;;6.15;2.35;;;8.90;99.90;;;;;;5034556;28;20195;-78
2021/11/05 06:21:56;;;;;;;5.90;3.05;;;8.80;99.90;;;;;;5034705;28;20507;-78
2021/11/05 06:24:22;;;;;;;6.20;2.83;;;8.80;99.90;;;;;;5034923;28;20175;-78
2021/11/05 06:26:49;;;;;;;7.38;3.08;;;8.90;99.90;;;;;;5034464;28;20172;-78
2021/11/05 06:29:15;;;;;;;5.05;2.75;;;8.90;99.90;;;;;;5034490;28;20245;-78
2021/11/05 06:31:42;;;;;;;4.85;2.72;;;8.80;99.90;;;;;;5032895;28;20262;-78
2021/11/05 06:34:08;;;;;;;5.72;2.40;;;8.70;99.90;;;;;;5033918;28;20191;-77
2021/11/05 06:36:34;;;;;;;6.50;3.30;;;8.50;99.90;;;;;;5033353;28;20168;-78
2021/11/05 06:39:02;;;;;;;7.63;2.58;;;8.60;99.90;;;;;;5033704;28;20648;-78
2021/11/05 06:41:28;;;;;;;2.42;2.13;;;8.60;99.90;;;;;;5033509;28;20168;-77
2021/11/05 06:43:54;;;;;;;4.25;2.47;;;8.60;99.90;;;;;;5033348;28;20172;-79
2021/11/05 06:46:20;;;;;;;3.00;2.67;;;8.70;99.90;;;;;;5033604;28;20639;-77
2021/11/05 06:48:46;;;;;;;6.28;2.47;;;8.60;99.90;;;;;;5033610;28;20247;-78
2021/11/05 06:51:11;;;;;;;3.13;2.35;;;8.70;99.90;;;;;;5033449;28;20240;-77
2021/11/05 06:53:37;;;;;;;9.30;2.88;;;8.30;99.90;;;;;;5033461;28;20164;-77
2021/11/05 06:56:03;;;;;;;4.28;2.60;;;8.30;99.90;;;;;;5033133;28;20174;-77
2021/11/05 06:58:34;;;;;;;5.15;2.15;;;8.40;99.90;;;;;;5033235;28;20210;-77
2021/11/05 07:01:00;;;;;;;10.27;3.28;;;8.50;99.90;;;;;;5033006;28;20191;-78
2021/11/05 07:03:26;;;;;;;9.35;3.75;;;8.50;99.90;;;;;;5033279;28;20247;-78
2021/11/05 07:05:51;;;;;;;3.70;2.50;;;8.50;99.90;;;;;;5033234;28;20214;-79
2021/11/05 07:08:17;;;;;;;6.50;2.83;;;8.50;99.90;;;;;;5032983;28;20172;-77
2021/11/05 07:10:45;;;;;;;8.20;2.83;;;8.60;99.90;;;;;;5033221;28;20215;-77
2021/11/05 07:13:11;;;;;;;3.20;2.40;;;8.50;99.90;;;;;;5033289;28;20195;-77
2021/11/05 07:15:37;;;;;;;8.55;3.25;;;8.40;99.90;;;;;;5033311;28;20199;-77
2021/11/05 07:18:02;;;;;;;11.05;3.08;;;8.50;99.90;;;;;;5032429;28;20160;-77
2021/11/05 07:20:28;;;;;;;5.70;2.55;;;8.60;99.90;;;;;;5032563;28;20188;-77
2021/11/05 07:22:54;;;;;;;2.42;2.22;;;8.70;99.90;;;;;;5032923;28;20175;-78
2021/11/05 07:25:20;;;;;;;8.65;3.00;;;8.70;99.90;;;;;;5032821;28;20269;-77
2021/11/05 07:27:45;;;;;;;10.38;3.13;;;8.70;99.90;;;;;;5032612;28;20173;-77
2021/11/05 07:30:13;;;;;;;9.43;3.45;;;8.70;99.90;;;;;;5031473;28;20668;-86
2021/11/05 07:32:44;;;;;;;13.85;3.25;;;8.90;99.90;;;;;;5031114;28;20175;-78
2021/11/05 07:35:11;;;;;;;6.78;2.90;;;8.70;99.90;;;;;;5032471;28;20164;-78
2021/11/05 07:37:37;;;;;;;7.47;2.42;;;8.80;99.90;;;;;;5031753;28;20576;-84
2021/11/05 07:40:04;;;;;;;9.13;3.53;;;8.90;99.90;;;;;;5032213;28;20263;-77
2021/11/05 07:42:30;;;;;;;9.15;3.22;;;9.00;99.90;;;;;;5032320;28;20167;-78
2021/11/05 07:44:56;;;;;;;5.72;3.25;;;9.10;99.90;;;;;;5031454;28;20526;-78
2021/11/05 07:47:23;;;;;;;8.95;3.60;;;9.10;99.90;;;;;;5032552;28;20212;-77
2021/11/05 07:49:50;;;;;;;3.03;2.78;;;9.30;99.90;;;;;;5031664;28;20180;-78
2021/11/05 07:52:18;;;;;;;4.28;2.92;;;9.30;99.90;;;;;;5032043;28;20176;-77
2021/11/05 07:54:46;;;;;;;3.95;3.08;;;9.30;99.90;;;;;;5032446;28;20254;-78
2021/11/05 07:57:11;;;;;;;11.18;2.80;;;9.50;99.90;;;;;;5032033;28;20172;-79
2021/11/05 07:59:37;;;;;;;5.35;3.22;;;9.50;99.90;;;;;;5031932;28;20297;-77
2021/11/05 08:02:03;;;;;;;3.28;2.78;;;9.60;99.90;;;;;;5031883;28;20201;-78
2021/11/05 08:04:30;;;;;;;7.32;3.53;;;9.60;99.90;;;;;;5031955;28;20171;-81
2021/11/05 08:06:55;;;;;;;4.57;2.78;;;9.70;99.90;;;;;;5032138;28;20258;-78
2021/11/05 08:09:21;;;;;;;5.65;2.95;;;9.90;99.90;;;;;;5032228;28;20692;-79
2021/11/05 08:11:47;;;;;;;6.50;3.45;;;10.00;99.90;;;;;;5032270;28;20219;-78
2021/11/05 08:14:12;;;;;;;7.32;3.53;;;10.00;99.90;;;;;;5031982;28;20171;-78
2021/11/05 08:16:38;;;;;;;9.38;4.38;;;10.00;99.90;;;;;;5031715;28;20651;-79
2021/11/05 08:19:04;;;;;;;9.73;2.85;;;10.10;99.90;;;;;;5027695;28;20617;-82
2021/11/05 08:21:29;;;;;;;6.28;2.95;;;10.20;99.90;;;;;;5030840;28;20655;-82
2021/11/05 08:23:56;;;;;;;6.95;3.28;;;10.20;99.90;;;;;;5030782;28;20724;-78
2021/11/05 08:26:22;;;;;;;7.22;2.65;;;10.10;99.90;;;;;;5030330;28;20175;-78
2021/11/05 08:28:47;;;;;;;6.50;2.97;;;10.20;99.90;;;;;;5029401;28;20179;-82
2021/11/05 08:31:15;;;;;;;5.43;3.15;;;10.30;99.90;;;;;;5034592;28;20207;-83
2021/11/05 08:33:42;;;;;;;9.55;4.05;;;10.40;99.90;;;;;;5035284;28;20186;-80
2021/11/05 08:36:09;;;;;;;10.95;2.47;;;10.50;99.90;;;;;;5035348;28;20175;-83
2021/11/05 08:38:36;;;;;;;6.30;3.00;;;10.40;99.90;;;;;;5035089;28;20168;-83
2021/11/05 08:41:02;;;;;;;5.05;2.70;;;10.40;99.90;;;;;;5035417;28;20187;-83
2021/11/05 08:43:31;;;;;;;4.78;2.53;;;10.40;99.90;;;;;;5035314;28;20171;-80
2021/11/05 08:46:04;;;;;;;11.43;3.30;;;10.60;99.90;;;;;;5033794;28;20183;-84
2021/11/05 08:48:31;;;;;;;7.18;2.67;;;10.80;99.90;;;;;;5026682;28;20180;-77
2021/11/05 08:51:07;;;;;;;6.97;2.80;;;10.90;99.90;;;;;;5034043;28;20230;-78
2021/11/05 08:53:33;;;;;;;12.68;2.63;;;11.00;99.90;;;;;;5034671;28;20179;-79
2021/11/05 08:55:59;;;;;;;8.20;2.88;;;11.00;99.90;;;;;;5033548;28;20164;-78
2021/11/05 08:58:24;;;;;;;6.97;2.20;;;11.00;99.90;;;;;;5033877;28;20190;-79
2021/11/05 09:00:50;;;;;;;11.23;2.63;;;11.10;99.90;;;;;;5034435;28;20656;-79
2021/11/05 09:03:16;;;;;;;4.65;2.33;;;11.10;99.90;;;;;;5033926;28;20172;-75
2021/11/05 09:05:42;;;;;;;3.88;1.90;;;11.10;99.90;;;;;;5033683;28;20183;-79
2021/11/05 09:08:08;;;;;;;6.50;2.75;;;11.20;99.90;;;;;;5034295;28;20175;-77
2021/11/05 09:10:35;;;;;;;10.55;2.20;;;11.10;99.90;;;;;;5013952;28;20599;-77
2021/11/05 09:13:02;;;;;;;6.32;2.50;;;11.20;99.90;;;;;;5013922;28;20173;-77
2021/11/05 09:15:29;;;;;;;8.50;2.97;;;11.30;99.90;;;;;;5014367;28;20244;-77
2021/11/05 09:17:56;;;;;;;4.72;1.95;;;11.30;99.90;;;;;;5014700;28;20719;-80
2021/11/05 09:20:22;;;;;;;5.82;2.53;;;11.30;99.90;;;;;;5014955;28;20661;-78
2021/11/05 09:22:50;;;;;;;5.70;2.22;;;11.10;99.90;;;;;;5015518;28;20207;-80
2021/11/05 09:25:16;;;;;;;4.03;2.20;;;10.90;99.90;;;;;;5034836;28;20176;-76
2021/11/05 09:27:43;;;;;;;8.73;3.03;;;10.80;99.90;;;;;;5034137;28;20180;-77
2021/11/05 09:30:10;;;;;;;2.88;1.98;;;10.80;99.90;;;;;;5033651;28;20623;-78
2021/11/05 09:32:36;;;;;;;4.63;2.40;;;10.70;99.90;;;;;;5032791;28;20247;-76
2021/11/05 09:35:01;;;;;;;6.10;3.08;;;10.80;99.90;;;;;;5032487;28;20263;-77
2021/11/05 09:37:28;;;;;;;7.05;2.65;;;10.90;99.90;;;;;;5033121;28;20168;-77
2021/11/05 09:39:53;;;;;;;13.45;3.38;;;11.00;99.90;;;;;;5033906;28;20620;-78
2021/11/05 09:42:19;;;;;;;9.38;3.20;;;11.00;99.90;;;;;;5033614;28;20252;-77
2021/11/05 09:44:45;;;;;;;7.43;2.95;;;11.10;99.90;;;;;;5034873;28;20576;-77
2021/11/05 09:47:12;;;;;;;8.80;4.03;;;11.20;99.90;;;;;;5033995;28;20175;-77
2021/11/05 09:49:37;;;;;;;12.63;2.78;;;11.00;99.90;;;;;;5034285;28;20735;-77
2021/11/05 09:52:05;;;;;;;6.65;2.80;;;11.10;99.90;;;;;;5034454;28;20323;-76
2021/11/05 09:54:32;;;;;;;5.38;3.22;;;11.10;99.90;;;;;;5035077;28;20491;-77
2021/11/05 09:56:58;;;;;;;13.70;3.28;;;11.10;99.90;;;;;;5034472;28;20612;-77
2021/11/05 09:59:25;;;;;;;10.70;2.65;;;11.20;99.90;;;;;;5034393;28;20187;-77
2021/11/05 10:01:51;;;;;;;11.05;3.13;;;11.30;99.90;;;;;;5034180;28;20164;-76
2021/11/05 10:04:18;;;;;;;9.45;2.22;;;11.20;99.90;;;;;;5034156;28;20475;-77
2021/11/05 10:07:05;;;;;;;8.77;1.90;;;11.30;99.90;;;;;;5034183;28;20168;-77
2021/11/05 10:09:37;;;;;;;6.15;2.30;;;11.40;99.90;;;;;;5034191;28;20192;-77
2021/11/05 10:12:23;;;;;;;7.10;2.10;;;11.40;99.90;;;;;;5033984;28;20258;-77
2021/11/05 10:15:01;;;;;;;5.80;2.17;;;11.50;99.90;;;;;;5033971;28;20168;-77
2021/11/05 10:17:29;;;;;;;5.82;1.98;;;11.60;99.90;;;;;;5034473;28;20612;-77
2021/11/05 10:20:02;;;;;;;5.85;2.85;;;11.70;99.90;;;;;;5034145;28;20191;-77
2021/11/05 10:22:31;;;;;;;2.92;1.90;;;11.60;99.90;;;;;;5034198;28;20624;-77
2021/11/05 10:25:30;;;;;;;5.18;2.10;;;11.70;99.90;;;;;;5034157;28;20180;-77
2021/11/05 10:28:11;;;;;;;2.40;1.65;;;11.70;99.90;;;;;;5034135;28;20526;-76
2021/11/05 10:30:45;;;;;;;7.40;1.90;;;11.80;99.90;;;;;;5034202;28;20203;-78
2021/11/05 10:33:13;;;;;;;6.57;1.48;;;11.80;99.90;;;;;;5034401;28;20557;-78
2021/11/05 10:35:40;;;;;;;6.88;1.70;;;11.90;99.90;;;;;;5034287;28;20180;-77
2021/11/05 10:38:08;;;;;;;2.25;1.70;;;12.00;99.90;;;;;;5034070;28;20176;-76
2021/11/05 10:40:43;;;;;;;3.45;1.73;;;12.10;99.90;;;;;;5033877;28;20283;-77
2021/11/05 10:43:11;;;;;;;2.78;1.38;;;12.10;99.90;;;;;;5034264;28;20246;-77
2021/11/05 10:45:38;;;;;;;5.07;1.52;;;12.20;99.90;;;;;;5034030;28;20646;-77
2021/11/05 10:48:11;;;;;;;3.92;1.23;;;12.20;99.90;;;;;;5033697;28;20168;-77
2021/11/05 10:50:45;;;;;;;7.00;1.60;;;12.20;99.90;;;;;;5033296;28;20286;-77
2021/11/05 10:53:14;;;;;;;7.40;2.20;;;12.30;99.90;;;;;;5032681;28;20506;-77
2021/11/05 10:55:49;;;;;;;5.82;1.23;;;12.50;99.90;;;;;;5033016;28;20204;-77
2021/11/05 10:58:36;;;;;;;5.10;1.20;;;12.60;99.90;;;;;;5033126;28;20206;-77
2021/11/05 11:01:15;;;;;;;2.75;1.30;;;12.60;99.90;;;;;;5033376;28;20203;-77
2021/11/05 11:03:50;;;;;;;4.05;1.05;;;12.70;99.90;;;;;;5033553;28;20242;-77
2021/11/05 11:06:18;;;;;;;9.20;1.95;;;13.00;99.90;;;;;;5032800;28;20175;-77
2021/11/05 11:08:55;;;;;;;7.18;1.23;;;13.10;99.90;;;;;;5031818;28;20229;-77
2021/11/05 11:11:26;;;;;;;4.63;1.50;;;13.10;99.90;;;;;;5033144;28;20560;-77
2021/11/05 11:14:03;;;;;;;7.40;1.50;;;13.10;99.90;;;;;;5031722;28;20175;-77
2021/11/05 11:16:40;;;;;;;4.22;2.10;;;13.00;99.90;;;;;;5032851;28;20168;-77
2021/11/05 11:19:09;;;;;;;3.72;2.17;;;12.90;99.90;;;;;;5030725;28;20198;-77
2021/11/05 11:21:52;;;;;;;7.25;3.53;;;12.70;99.90;;;;;;5032869;28;20199;-79
2021/11/05 11:24:21;;;;;;;6.13;3.53;;;12.60;99.90;;;;;;5031447;28;20168;-77
2021/11/05 11:26:49;;;;;;;6.57;3.20;;;12.60;99.90;;;;;;5032821;28;20160;-77
2021/11/05 11:29:18;;;;;;;8.15;3.10;;;12.60;99.90;;;;;;5032762;28;20191;-78
2021/11/05 11:31:45;;;;;;;8.05;3.55;;;12.60;99.90;;;;;;5032206;28;21069;-78
2021/11/05 11:34:13;;;;;;;15.38;4.18;;;12.80;99.90;;;;;;5031059;28;20644;-81
2021/11/05 11:36:43;;;;;;;10.90;3.50;;;12.90;99.90;;;;;;5032907;28;20168;-82
2021/11/05 11:39:12;;;;;;;6.22;3.47;;;12.90;99.90;;;;;;5032792;28;20546;-77
2021/11/05 11:41:38;;;;;;;4.57;3.42;;;13.10;99.90;;;;;;5032576;28;20493;-76
2021/11/05 11:44:06;;;;;;;8.88;3.08;;;13.20;99.90;;;;;;5032911;28;20164;-76
2021/11/05 11:46:53;;;;;;;12.05;4.25;;;13.30;99.90;;;;;;5032507;28;20164;-77
2021/11/05 11:49:35;;;;;;;10.65;3.15;;;13.40;99.90;;;;;;5032546;28;20191;-85
2021/11/05 11:52:00;;;;;;;4.13;2.28;;;13.10;99.90;;;;;;5032188;28;20200;-76
2021/11/05 11:54:33;;;;;;;6.20;2.42;;;12.90;99.90;;;;;;5031730;28;20632;-83
2021/11/05 11:57:26;;;;;;;6.03;2.60;;;12.80;99.90;;;;;;5032111;28;20209;-78
2021/11/05 12:00:15;;;;;;;4.20;1.60;;;12.70;99.90;;;;;;5029056;28;20203;-76
2021/11/05 12:03:08;;;;;;;10.27;1.60;;;12.50;99.90;;;;;;5032135;28;20558;-79
2021/11/05 12:05:39;;;;;;;3.17;1.40;;;12.60;99.90;;;;;;5031930;28;20194;-77
2021/11/05 12:08:34;;;;;;;5.72;2.97;;;12.70;99.90;;;;;;5032450;28;20172;-77
2021/11/05 12:11:20;;;;;;;9.45;3.22;;;12.80;99.90;;;;;;5032416;28;20211;-77
2021/11/05 12:14:09;;;;;;;7.65;1.90;;;12.90;99.90;;;;;;5032282;28;20160;-78
2021/11/05 12:16:36;;;;;;;10.10;1.77;;;13.00;99.90;;;;;;5022202;28;20184;-77
2021/11/05 12:19:06;;;;;;;4.85;1.98;;;12.80;99.90;;;;;;5032375;28;20190;-77
2021/11/05 12:21:34;;;;;;;4.93;1.30;;;12.70;99.90;;;;;;5032095;28;20218;-85
2021/11/05 12:24:24;;;;;;;3.10;1.30;;;12.60;99.90;;;;;;5032113;28;20175;-83
2021/11/05 12:26:55;;;;;;;2.33;1.33;;;12.50;99.90;;;;;;5032076;28;20203;-76
2021/11/05 12:29:32;;;;;;;2.90;1.60;;;12.40;99.90;;;;;;5030490;28;20224;-77
2021/11/05 12:32:15;;;;;;;5.10;1.83;;;12.30;99.90;;;;;;5031869;28;20734;-77
2021/11/05 12:34:53;;;;;;;2.17;1.88;;;12.30;99.90;;;;;;5028572;28;20188;-85
2021/11/05 12:37:29;;;;;;;3.10;1.30;;;12.30;99.90;;;;;;5031267;28;20212;-78
2021/11/05 12:40:15;;;;;;;5.75;1.83;;;12.50;99.90;;;;;;5031663;28;20600;-86
2021/11/05 12:42:42;;;;;;;4.90;1.40;;;12.30;99.90;;;;;;5031751;28;20172;-82
2021/11/05 12:45:08;;;;;;;8.07;1.90;;;12.20;99.90;;;;;;5031069;28;20203;-81
2021/11/05 12:47:49;;;;;;;4.60;1.88;;;12.20;99.90;;;;;;5032107;28;20251;-78
2021/11/05 12:50:21;;;;;;;5.20;2.15;;;12.40;99.90;;;;;;5030950;28;20195;-77
2021/11/05 12:53:05;;;;;;;6.10;3.03;;;12.60;99.90;;;;;;5030207;28;20176;-78
2021/11/05 12:55:33;;;;;;;12.82;3.97;;;12.70;99.90;;;;;;5029419;28;20218;-80